createdAt,value
2022-10-07T00:01:12.351Z,29.88
2022-10-07T00:03:41.113Z,27.77
2022-10-07T00:06:14.276Z,30.60
2022-10-07T00:08:44.461Z,30.30
2022-10-07T00:11:14.647Z,30.85
2022-10-07T00:13:43.863Z,32.95
2022-10-07T00:16:13.748Z,34.67
2022-10-07T00:18:42.210Z,37.67
2022-10-07T00:21:12.167Z,29.20
2022-10-07T00:23:42.966Z,38.75
2022-10-07T00:26:14.083Z,34.17
2022-10-07T00:28:43.266Z,35.13
2022-10-07T00:31:14.991Z,32.72
2022-10-07T00:33:43.582Z,34.83
2022-10-07T00:36:16.178Z,36.78
2022-10-07T00:38:45.509Z,82.93
2022-10-07T00:41:20.052Z,36.58
2022-10-07T00:43:49.184Z,34.55
2022-10-07T00:46:26.788Z,32.58
2022-10-07T00:48:55.200Z,38.08
2022-10-07T00:51:23.655Z,34.05
2022-10-07T00:53:54.960Z,40.40
2022-10-07T00:56:24.701Z,37.95
2022-10-07T00:58:52.921Z,46.55
2022-10-07T01:01:22.008Z,38.67
2022-10-07T01:03:50.230Z,41.95
2022-10-07T01:06:18.917Z,37.75
2022-10-07T01:08:48.541Z,37.33
2022-10-07T01:11:33.516Z,42.90
2022-10-07T01:14:08.046Z,51.45
2022-10-07T01:16:45.274Z,44.95
2022-10-07T01:19:34.949Z,43.70
2022-10-07T01:22:15.837Z,117.47
2022-10-07T01:24:50.744Z,44.75
2022-10-07T01:27:23.177Z,59.40
2022-10-07T01:29:56.146Z,47.40
2022-10-07T01:32:32.443Z,43.00
2022-10-07T01:35:02.795Z,48.60
2022-10-07T01:37:35.958Z,51.53
2022-10-07T01:40:08.482Z,175.02
2022-10-07T01:42:38.712Z,92.43
2022-10-07T01:45:11.229Z,58.75
2022-10-07T01:47:40.323Z,75.63
2022-10-07T01:50:13.329Z,167.43
2022-10-07T01:52:53.657Z,89.55
2022-10-07T01:55:38.332Z,157.70
2022-10-07T01:58:21.538Z,278.42
2022-10-07T02:00:56.157Z,212.70
2022-10-07T02:03:35.639Z,176.45
2022-10-07T02:06:11.862Z,179.63
2022-10-07T02:08:45.459Z,193.80
2022-10-07T02:11:16.085Z,223.80
2022-10-07T02:13:55.810Z,198.00
2022-10-07T02:16:30.101Z,144.75
2022-10-07T02:19:02.508Z,200.90
2022-10-07T02:21:36.436Z,212.30
2022-10-07T02:24:05.285Z,243.50
2022-10-07T02:26:35.814Z,165.55
2022-10-07T02:29:07.839Z,90.13
2022-10-07T02:31:38.497Z,177.20
2022-10-07T02:34:10.559Z,153.30
2022-10-07T02:36:42.371Z,157.77
2022-10-07T02:39:10.412Z,199.23
2022-10-07T02:41:45.593Z,134.48
2022-10-07T02:44:25.815Z,143.18
2022-10-07T02:46:58.934Z,113.13
2022-10-07T02:49:30.838Z,96.47
2022-10-07T02:52:02.649Z,132.13
2022-10-07T02:54:35.712Z,187.23
2022-10-07T02:57:05.189Z,97.15
2022-10-07T02:59:37.590Z,73.25
2022-10-07T03:02:09.786Z,64.00
2022-10-07T03:04:38.359Z,430.95
2022-10-07T03:07:06.150Z,505.55
2022-10-07T03:09:33.930Z,594.95
2022-10-07T03:12:02.081Z,445.67
2022-10-07T03:14:29.999Z,488.25
2022-10-07T03:16:59.125Z,394.27
2022-10-07T03:19:27.125Z,402.80
2022-10-07T03:21:55.046Z,247.27
2022-10-07T03:24:22.750Z,105.82
2022-10-07T03:26:51.039Z,265.98
2022-10-07T03:29:19.574Z,304.60
2022-10-07T03:31:47.452Z,312.90
2022-10-07T03:34:17.048Z,186.30
2022-10-07T03:36:45.436Z,155.88
2022-10-07T03:39:13.352Z,439.70
2022-10-07T03:41:42.155Z,467.40
2022-10-07T03:44:09.927Z,439.90
2022-10-07T03:46:37.791Z,408.00
2022-10-07T03:49:05.723Z,429.52
2022-10-07T03:51:36.041Z,413.50
2022-10-07T03:54:04.062Z,435.98
2022-10-07T03:56:32.124Z,313.55
2022-10-07T03:59:00.181Z,276.77
2022-10-07T04:01:31.520Z,211.23
2022-10-07T04:04:01.042Z,130.88
2022-10-07T04:06:30.032Z,65.63
2022-10-07T04:08:59.140Z,49.92
2022-10-07T04:11:27.123Z,60.42
2022-10-07T04:13:55.576Z,56.67
2022-10-07T04:16:23.489Z,63.40
2022-10-07T04:18:55.654Z,76.63
2022-10-07T04:23:51.423Z,79.72
2022-10-07T04:26:20.761Z,102.97
2022-10-07T04:28:50.028Z,66.40
2022-10-07T04:31:17.896Z,91.45
2022-10-07T04:33:46.471Z,71.55
2022-10-07T04:36:14.440Z,55.22
2022-10-07T04:38:44.228Z,95.85
2022-10-07T04:41:12.064Z,130.32
2022-10-07T04:43:41.403Z,123.53
2022-10-07T04:46:13.557Z,118.70
2022-10-07T04:48:44.210Z,109.85
2022-10-07T04:51:12.392Z,129.80
2022-10-07T04:53:41.568Z,108.93
2022-10-07T04:56:11.209Z,108.20
2022-10-07T04:58:39.136Z,76.55
2022-10-07T05:01:11.366Z,69.00
2022-10-07T05:03:41.074Z,146.35
2022-10-07T05:06:09.916Z,117.63
2022-10-07T05:08:38.226Z,122.57
2022-10-07T05:11:06.182Z,68.43
2022-10-07T05:13:34.254Z,282.63
2022-10-07T05:16:03.349Z,264.52
2022-10-07T05:18:35.613Z,204.98
2022-10-07T05:23:35.730Z,112.53
2022-10-07T05:26:08.133Z,220.20
2022-10-07T05:28:36.506Z,316.40
2022-10-07T05:31:09.345Z,166.02
2022-10-07T05:33:39.489Z,446.58
2022-10-07T05:36:08.970Z,388.20
2022-10-07T05:38:37.121Z,265.52
2022-10-07T05:41:07.121Z,453.05
2022-10-07T05:43:37.869Z,256.00
2022-10-07T05:46:07.503Z,293.48
2022-10-07T05:48:39.372Z,187.73
2022-10-07T05:51:09.612Z,170.13
2022-10-07T05:53:41.053Z,346.10
2022-10-07T05:56:10.996Z,295.25
2022-10-07T05:58:39.053Z,181.93
2022-10-07T06:01:13.781Z,60.30
2022-10-07T06:03:42.648Z,57.17
2022-10-07T06:06:11.862Z,70.97
2022-10-07T06:08:39.792Z,126.68
2022-10-07T06:11:37.237Z,156.82
2022-10-07T06:14:05.824Z,60.40
2022-10-07T06:16:34.085Z,65.63
2022-10-07T06:19:02.366Z,54.28
2022-10-07T06:21:31.581Z,56.13
2022-10-07T06:23:59.639Z,52.70
2022-10-07T06:26:27.844Z,44.72
2022-10-07T06:28:55.721Z,49.05
2022-10-07T06:31:25.554Z,40.72
2022-10-07T06:33:55.188Z,61.95
2022-10-07T06:36:23.545Z,41.53
2022-10-07T06:38:54.941Z,41.47
2022-10-07T06:41:23.968Z,36.55
2022-10-07T06:43:56.095Z,37.60
2022-10-07T06:46:24.527Z,45.55
2022-10-07T06:48:52.598Z,38.40
2022-10-07T06:51:21.989Z,36.92
2022-10-07T06:53:54.817Z,36.38
2022-10-07T06:56:24.488Z,37.67
2022-10-07T06:58:52.394Z,35.20
2022-10-07T07:01:20.262Z,33.33
2022-10-07T07:03:48.672Z,32.97
2022-10-07T07:06:16.728Z,32.92
2022-10-07T07:08:45.866Z,32.28
2022-10-07T07:11:33.170Z,28.33
2022-10-07T07:14:01.934Z,27.08
2022-10-07T07:16:30.060Z,27.75
2022-10-07T07:18:59.989Z,21.67
2022-10-07T07:21:28.890Z,23.08
2022-10-07T07:23:58.526Z,20.40
2022-10-07T07:26:28.596Z,17.95
2022-10-07T07:28:59.269Z,19.40
2022-10-07T07:31:28.910Z,20.05
2022-10-07T07:33:56.941Z,18.13
2022-10-07T07:36:26.630Z,15.90
2022-10-07T07:38:55.903Z,16.05
2022-10-07T07:41:47.885Z,14.60
2022-10-07T07:44:19.461Z,14.60
2022-10-07T07:46:51.164Z,16.60
2022-10-07T07:51:47.754Z,14.93
2022-10-07T07:54:16.426Z,16.38
2022-10-07T07:56:44.832Z,17.48
2022-10-07T07:59:13.080Z,14.50
2022-10-07T08:01:44.142Z,12.77
2022-10-07T08:04:13.229Z,16.10
2022-10-07T08:06:41.024Z,12.60
2022-10-07T08:09:09.554Z,12.15
2022-10-07T08:11:37.454Z,12.38
2022-10-07T08:14:07.853Z,14.65
2022-10-07T08:16:37.003Z,11.93
2022-10-07T08:19:06.256Z,11.27
2022-10-07T08:21:34.278Z,12.50
2022-10-07T08:24:04.518Z,12.32
2022-10-07T08:26:34.660Z,14.95
2022-10-07T08:29:02.701Z,12.48
2022-10-07T08:31:30.974Z,16.35
2022-10-07T08:34:01.015Z,12.07
2022-10-07T08:36:32.720Z,12.32
2022-10-07T08:39:02.143Z,11.82
2022-10-07T08:41:55.414Z,12.65
2022-10-07T08:44:29.497Z,11.75
2022-10-07T08:47:02.833Z,11.55
2022-10-07T08:49:49.369Z,13.30
2022-10-07T08:52:29.864Z,10.75
2022-10-07T08:54:59.223Z,10.65
2022-10-07T08:57:39.030Z,11.18
2022-10-07T09:00:09.141Z,11.60
2022-10-07T09:02:48.873Z,10.95
2022-10-07T09:05:22.101Z,10.43
2022-10-07T09:07:54.912Z,10.55
2022-10-07T09:10:32.370Z,10.63
2022-10-07T09:13:04.690Z,11.85
2022-10-07T09:15:40.452Z,12.65
2022-10-07T09:18:17.686Z,12.77
2022-10-07T09:20:53.373Z,10.70
2022-10-07T09:23:25.439Z,10.88
2022-10-07T09:28:30.482Z,10.40
2022-10-07T09:31:00.251Z,10.15
2022-10-07T09:33:29.741Z,12.70
2022-10-07T09:35:59.754Z,15.00
2022-10-07T09:38:36.137Z,12.27
2022-10-07T09:41:16.941Z,10.95
2022-10-07T09:43:57.369Z,9.65
2022-10-07T09:46:36.693Z,11.05
2022-10-07T09:49:07.244Z,10.75
2022-10-07T09:51:35.401Z,10.65
2022-10-07T09:54:07.229Z,12.45
2022-10-07T09:59:22.776Z,9.80
2022-10-07T10:01:52.820Z,11.57
2022-10-07T10:04:29.164Z,13.50
2022-10-07T10:07:02.148Z,13.02
2022-10-07T10:09:33.845Z,10.73
2022-10-07T10:12:07.187Z,9.65
2022-10-07T10:14:43.727Z,10.93
2022-10-07T10:17:23.777Z,8.77
2022-10-07T10:19:51.891Z,8.32
2022-10-07T10:22:27.890Z,10.15
2022-10-07T10:25:15.882Z,9.52
2022-10-07T10:27:55.340Z,8.23
2022-10-07T10:30:24.756Z,7.65
2022-10-07T10:33:20.120Z,6.90
2022-10-07T10:35:57.145Z,8.73
2022-10-07T10:38:46.922Z,9.32
2022-10-07T10:41:25.677Z,9.02
2022-10-07T10:44:19.849Z,10.85
2022-10-07T10:46:56.059Z,7.47
2022-10-07T10:49:30.483Z,7.75
2022-10-07T10:52:15.223Z,6.43
2022-10-07T10:54:58.190Z,6.95
2022-10-07T10:57:41.609Z,7.53
2022-10-07T11:00:13.725Z,9.48
2022-10-07T11:02:59.332Z,6.00
2022-10-07T11:05:31.967Z,4.55
2022-10-07T11:08:05.365Z,8.13
2022-10-07T11:10:38.588Z,9.77
2022-10-07T11:13:27.380Z,14.80
2022-10-07T11:16:00.682Z,5.43
2022-10-07T11:18:35.613Z,7.30
2022-10-07T11:21:07.876Z,7.53
2022-10-07T11:23:45.801Z,6.90
2022-10-07T11:26:22.117Z,7.22
2022-10-07T11:28:52.950Z,5.57
2022-10-07T11:31:32.333Z,5.60
2022-10-07T11:34:14.933Z,6.82
2022-10-07T11:36:50.541Z,5.15
2022-10-07T11:39:18.790Z,4.80
2022-10-07T11:41:55.826Z,5.32
2022-10-07T11:44:31.070Z,8.80
2022-10-07T11:47:02.854Z,9.02
2022-10-07T11:49:36.313Z,8.43
2022-10-07T11:52:06.829Z,6.18
2022-10-07T11:54:42.208Z,5.97
2022-10-07T11:57:21.370Z,7.78
2022-10-07T11:59:53.081Z,6.53
2022-10-07T12:02:45.122Z,5.47
2022-10-07T12:06:02.414Z,6.05
2022-10-07T12:08:32.944Z,6.68
2022-10-07T12:11:42.693Z,6.43
2022-10-07T12:14:41.934Z,7.93
2022-10-07T12:17:30.157Z,9.02
2022-10-07T12:20:37.168Z,6.15
2022-10-07T12:23:49.777Z,5.05
2022-10-07T12:26:52.062Z,7.47
2022-10-07T12:29:23.745Z,7.22
2022-10-07T12:31:51.958Z,5.25
2022-10-07T12:34:34.813Z,6.22
2022-10-07T12:37:41.109Z,7.13
2022-10-07T12:40:19.254Z,10.07
2022-10-07T12:42:55.392Z,7.80
2022-10-07T12:45:26.428Z,6.38
2022-10-07T12:47:58.631Z,9.93
2022-10-07T12:50:31.687Z,7.88
2022-10-07T12:53:03.431Z,11.35
2022-10-07T12:58:15.762Z,5.88
2022-10-07T13:00:52.867Z,9.40
2022-10-07T13:03:41.686Z,6.32
2022-10-07T13:06:46.225Z,9.82
2022-10-07T13:09:48.377Z,6.20
2022-10-07T13:12:32.450Z,10.43
2022-10-07T13:15:11.802Z,6.03
2022-10-07T13:17:48.201Z,9.73
2022-10-07T13:20:36.022Z,7.47
2022-10-07T13:23:12.726Z,9.15
2022-10-07T13:25:49.237Z,8.15
2022-10-07T13:28:22.291Z,6.68
2022-10-07T13:30:51.881Z,14.13
2022-10-07T13:33:24.738Z,24.38
2022-10-07T13:35:53.601Z,7.40
2022-10-07T13:38:23.670Z,7.00
2022-10-07T13:41:02.052Z,8.15
2022-10-07T13:43:32.177Z,8.25
2022-10-07T13:46:02.794Z,9.25
2022-10-07T13:48:35.202Z,8.15
2022-10-07T13:51:03.826Z,8.90
2022-10-07T13:53:35.307Z,7.07
2022-10-07T13:56:16.854Z,7.07
2022-10-07T13:58:46.454Z,16.55
2022-10-07T14:01:14.975Z,12.48
2022-10-07T14:04:03.791Z,8.07
2022-10-07T14:06:38.727Z,9.45
2022-10-07T14:12:18.609Z,10.77
2022-10-07T14:14:48.993Z,10.38
2022-10-07T14:17:35.301Z,12.23
2022-10-07T14:20:07.516Z,11.77
2022-10-07T14:22:38.949Z,6.68
2022-10-07T14:25:17.744Z,7.57
2022-10-07T14:28:04.635Z,11.15
2022-10-07T14:30:53.291Z,14.27
2022-10-07T14:33:48.408Z,12.00
2022-10-07T14:36:25.647Z,12.65
2022-10-07T14:38:58.038Z,8.40
2022-10-07T14:41:28.825Z,12.98
2022-10-07T14:44:00.106Z,8.90
2022-10-07T14:46:29.206Z,8.00
2022-10-07T14:48:57.010Z,7.00
2022-10-07T14:51:28.774Z,9.02
2022-10-07T14:56:32.210Z,9.13
2022-10-07T14:59:01.743Z,13.07
2022-10-07T15:01:30.044Z,12.95
2022-10-07T15:03:58.370Z,9.88
2022-10-07T15:06:26.779Z,10.05
2022-10-07T15:08:54.468Z,8.27
2022-10-07T15:11:22.767Z,10.63
2022-10-07T15:13:50.953Z,12.65
2022-10-07T15:16:22.898Z,11.48
2022-10-07T15:18:53.001Z,12.40
2022-10-07T15:21:23.005Z,9.10
2022-10-07T15:23:52.492Z,9.73
2022-10-07T15:26:24.016Z,10.68
2022-10-07T15:28:55.014Z,13.60
2022-10-07T15:31:26.584Z,12.23
2022-10-07T15:33:57.021Z,13.20
2022-10-07T15:36:26.610Z,11.55
2022-10-07T15:38:54.514Z,9.20
2022-10-07T15:41:34.603Z,11.65
2022-10-07T15:44:05.662Z,15.43
2022-10-07T15:46:35.431Z,11.68
2022-10-07T15:49:04.454Z,10.82
2022-10-07T15:51:32.866Z,11.70
2022-10-07T15:54:00.926Z,11.73
2022-10-07T15:56:28.880Z,10.05
2022-10-07T15:58:58.435Z,11.77
2022-10-07T16:01:28.208Z,14.73
2022-10-07T16:03:58.522Z,11.48
2022-10-07T16:06:31.277Z,14.27
2022-10-07T16:09:00.693Z,13.15
2022-10-07T16:11:29.950Z,10.70
2022-10-07T16:14:01.802Z,10.02
2022-10-07T16:16:32.318Z,10.52
2022-10-07T16:19:02.616Z,15.82
2022-10-07T16:21:32.934Z,14.18
2022-10-07T16:24:04.028Z,9.17
2022-10-07T16:26:34.370Z,10.93
2022-10-07T16:29:21.114Z,16.42
2022-10-07T16:31:54.511Z,11.80
2022-10-07T16:34:25.332Z,9.93
2022-10-07T16:36:54.030Z,11.75
2022-10-07T16:39:22.673Z,13.10
2022-10-07T16:41:52.247Z,13.85
2022-10-07T16:44:21.478Z,12.23
2022-10-07T16:46:49.706Z,11.80
2022-10-07T16:49:19.053Z,15.07
2022-10-07T16:51:48.525Z,12.95
2022-10-07T16:54:18.117Z,13.52
2022-10-07T16:56:50.888Z,19.55
2022-10-07T16:59:23.209Z,16.52
2022-10-07T17:01:55.579Z,16.52
2022-10-07T17:06:54.030Z,19.38
2022-10-07T17:09:24.512Z,19.17
2022-10-07T17:11:52.862Z,17.27
2022-10-07T17:14:22.792Z,18.98
2022-10-07T17:16:52.446Z,20.42
2022-10-07T17:19:22.245Z,20.10
2022-10-07T17:21:51.248Z,17.35
2022-10-07T17:24:22.374Z,18.67
2022-10-07T17:26:52.385Z,21.27
2022-10-07T17:29:21.476Z,16.98
2022-10-07T17:31:50.612Z,17.40
2022-10-07T17:34:21.881Z,19.15
2022-10-07T17:36:50.296Z,16.98
2022-10-07T17:39:20.036Z,20.95
2022-10-07T17:41:48.693Z,19.00
2022-10-07T17:44:17.942Z,20.48
2022-10-07T17:46:48.825Z,27.10
2022-10-07T17:49:16.940Z,22.42
2022-10-07T17:51:45.105Z,18.02
2022-10-07T17:54:15.953Z,28.88
2022-10-07T17:56:47.520Z,17.95
2022-10-07T17:59:15.542Z,23.98
2022-10-07T18:01:44.637Z,25.27
2022-10-07T18:04:17.946Z,22.52
2022-10-07T18:06:49.182Z,26.88
2022-10-07T18:09:53.986Z,23.58
2022-10-07T18:15:30.656Z,20.75
2022-10-07T18:17:58.969Z,26.20
2022-10-07T18:20:28.409Z,22.38
2022-10-07T18:22:57.386Z,25.58
2022-10-07T18:25:26.069Z,24.83
2022-10-07T18:27:55.203Z,27.00
2022-10-07T18:30:23.097Z,20.60
2022-10-07T18:32:51.314Z,26.35
2022-10-07T18:35:19.586Z,31.40
2022-10-07T18:37:49.377Z,26.25
2022-10-07T18:40:17.422Z,25.45
2022-10-07T18:42:45.710Z,24.13
2022-10-07T18:45:14.882Z,27.85
2022-10-07T18:47:42.954Z,27.08
2022-10-07T18:50:11.170Z,28.33
2022-10-07T18:52:38.859Z,28.30
2022-10-07T18:55:07.407Z,30.02
2022-10-07T18:57:35.412Z,32.67
2022-10-07T19:00:03.581Z,29.08
2022-10-07T19:02:33.862Z,30.90
2022-10-07T19:05:01.927Z,31.98
2022-10-07T19:07:31.059Z,35.33
2022-10-07T19:09:58.846Z,40.03
2022-10-07T19:12:45.211Z,39.55
2022-10-07T19:15:13.269Z,36.30
2022-10-07T19:17:42.577Z,40.65
2022-10-07T19:20:11.157Z,39.13
2022-10-07T19:22:38.986Z,38.67
2022-10-07T19:25:25.561Z,44.05
2022-10-07T19:27:53.303Z,37.78
2022-10-07T19:30:21.309Z,32.67
2022-10-07T19:32:52.239Z,36.15
2022-10-07T19:35:20.049Z,34.42
2022-10-07T19:37:48.802Z,34.28
2022-10-07T19:40:17.314Z,32.35
2022-10-07T19:42:45.206Z,31.00
2022-10-07T19:45:14.223Z,31.95
2022-10-07T19:47:41.934Z,36.17
2022-10-07T19:50:11.596Z,35.83
2022-10-07T19:52:39.399Z,31.98
2022-10-07T19:55:08.509Z,36.58
2022-10-07T19:57:37.364Z,30.15
2022-10-07T20:00:06.174Z,39.28
2022-10-07T20:02:34.159Z,35.88
2022-10-07T20:05:02.064Z,37.60
2022-10-07T20:08:10.142Z,38.25
2022-10-07T20:10:54.410Z,40.35
2022-10-07T20:13:24.086Z,41.58
2022-10-07T20:15:52.102Z,39.75
2022-10-07T20:18:20.175Z,39.95
2022-10-07T20:20:48.234Z,34.33
2022-10-07T20:23:16.261Z,38.75
2022-10-07T20:25:46.371Z,36.65
2022-10-07T20:28:15.583Z,38.97
2022-10-07T20:30:43.592Z,37.75
2022-10-07T20:33:12.016Z,32.67
2022-10-07T20:35:40.135Z,33.42
2022-10-07T20:38:07.837Z,36.08
2022-10-07T20:40:53.137Z,37.15
2022-10-07T20:43:22.574Z,35.20
2022-10-07T20:45:57.364Z,37.28
2022-10-07T20:48:28.718Z,37.22
2022-10-07T20:50:56.615Z,41.97
2022-10-07T20:53:24.835Z,40.65
2022-10-07T20:55:52.686Z,37.80
2022-10-07T20:58:22.002Z,36.75
2022-10-07T21:00:49.767Z,35.08
2022-10-07T21:03:18.223Z,51.17
2022-10-07T21:05:46.313Z,34.80
2022-10-07T21:08:15.449Z,40.30
2022-10-07T21:10:43.265Z,41.05
2022-10-07T21:13:11.117Z,38.88
2022-10-07T21:15:40.722Z,35.50
2022-10-07T21:18:08.528Z,33.47
2022-10-07T21:20:36.789Z,38.30
2022-10-07T21:23:04.534Z,39.00
2022-10-07T21:25:33.852Z,34.97
2022-10-07T21:28:01.668Z,36.38
2022-10-07T21:30:29.580Z,34.08
2022-10-07T21:32:59.510Z,31.52
2022-10-07T21:35:27.253Z,37.08
2022-10-07T21:37:54.975Z,34.60
2022-10-07T21:40:22.990Z,36.20
2022-10-07T21:42:50.722Z,41.15
2022-10-07T21:45:18.482Z,41.47
2022-10-07T21:47:46.532Z,43.83
2022-10-07T21:50:15.837Z,44.15
2022-10-07T21:52:44.326Z,38.15
2022-10-07T21:55:12.529Z,35.80
2022-10-07T21:57:42.514Z,35.75
2022-10-07T22:00:12.212Z,36.38
2022-10-07T22:02:40.200Z,38.15
2022-10-07T22:05:08.875Z,42.30
2022-10-07T22:07:55.821Z,40.03
2022-10-07T22:10:23.807Z,42.03
2022-10-07T22:12:51.530Z,37.38
2022-10-07T22:15:20.067Z,33.70
2022-10-07T22:17:47.942Z,41.85
2022-10-07T22:20:15.695Z,33.80
2022-10-07T22:22:45.266Z,41.45
2022-10-07T22:25:13.345Z,34.83
2022-10-07T22:27:41.389Z,39.58
2022-10-07T22:30:10.496Z,44.53
2022-10-07T22:32:38.358Z,37.92
2022-10-07T22:35:25.064Z,42.08
2022-10-07T22:37:55.345Z,46.22
2022-10-07T22:40:23.177Z,45.30
2022-10-07T22:42:50.888Z,49.03
2022-10-07T22:45:19.650Z,53.58
2022-10-07T22:47:49.345Z,56.72
2022-10-07T22:50:17.264Z,47.30
2022-10-07T22:52:45.971Z,45.63
2022-10-07T22:55:16.709Z,53.72
2022-10-07T22:57:44.950Z,54.67
2022-10-07T23:00:14.387Z,62.55
2022-10-07T23:02:42.361Z,55.50
2022-10-07T23:05:10.791Z,43.92
2022-10-07T23:07:39.132Z,42.70
2022-10-07T23:10:08.357Z,34.13
2022-10-07T23:12:37.457Z,46.55
2022-10-07T23:15:06.456Z,41.38
2022-10-07T23:17:34.378Z,36.35
2022-10-07T23:20:03.098Z,45.67
2022-10-07T23:22:31.193Z,34.78
2022-10-07T23:24:58.897Z,33.22
2022-10-07T23:27:26.599Z,24.75
2022-10-07T23:29:56.013Z,27.33
2022-10-07T23:32:23.858Z,31.70
2022-10-07T23:34:51.641Z,28.38
2022-10-07T23:37:19.718Z,26.00
2022-10-07T23:39:48.582Z,28.98
2022-10-07T23:42:16.371Z,27.00
2022-10-07T23:44:44.753Z,25.88
2022-10-07T23:47:13.826Z,37.10
2022-10-07T23:49:41.705Z,32.47
2022-10-07T23:52:09.714Z,34.38
2022-10-07T23:54:37.509Z,31.83
2022-10-07T23:57:05.318Z,33.17
2022-10-07T23:59:33.381Z,41.17
